createdAt,value
2022-10-23T00:01:17.333Z,101445.69
2022-10-23T00:03:46.068Z,101444.84
2022-10-23T00:06:15.958Z,101434.56
2022-10-23T00:08:44.388Z,101438.34
2022-10-23T00:11:15.077Z,101444.97
2022-10-23T00:13:43.332Z,101431.09
2022-10-23T00:16:11.400Z,101432.97
2022-10-23T00:18:41.050Z,101430.97
2022-10-23T00:21:11.440Z,101432.31
2022-10-23T00:23:40.472Z,101434.88
2022-10-23T00:26:11.096Z,101433.34
2022-10-23T00:28:39.370Z,101433.34
2022-10-23T00:31:07.972Z,101430.44
2022-10-23T00:33:36.186Z,101427.31
2022-10-23T00:36:07.753Z,101421.16
2022-10-23T00:38:36.067Z,101428.34
2022-10-23T00:41:04.853Z,101423.88
2022-10-23T00:43:33.294Z,101435.72
2022-10-23T00:46:01.264Z,101420.28
2022-10-23T00:48:30.090Z,101429.56
2022-10-23T00:50:59.287Z,101432.69
2022-10-23T00:53:28.897Z,101432.34
2022-10-23T00:55:57.747Z,101433.00
2022-10-23T00:58:25.693Z,101436.97
2022-10-23T01:00:55.961Z,101439.72
2022-10-23T01:03:27.181Z,101440.28
2022-10-23T01:06:02.286Z,101444.53
2022-10-23T01:08:36.851Z,101446.81
2022-10-23T01:11:11.709Z,101446.16
2022-10-23T01:13:45.618Z,101444.00
2022-10-23T01:16:19.805Z,101438.84
2022-10-23T01:18:54.817Z,101443.34
2022-10-23T01:21:30.540Z,101438.53
2022-10-23T01:24:11.289Z,101427.75
2022-10-23T01:27:01.691Z,101437.00
2022-10-23T01:29:38.587Z,101429.81
2022-10-23T01:32:13.334Z,101428.09
2022-10-23T01:34:48.027Z,101438.38
2022-10-23T01:37:24.473Z,101434.28
2022-10-23T01:39:56.596Z,101443.34
2022-10-23T01:42:30.897Z,101432.75
2022-10-23T01:45:04.290Z,101432.59
2022-10-23T01:47:42.890Z,101427.41
2022-10-23T01:50:15.646Z,101420.53
2022-10-23T01:52:46.629Z,101419.50
2022-10-23T01:55:15.507Z,101418.31
2022-10-23T01:57:46.619Z,101422.94
2022-10-23T02:00:21.381Z,101422.88
2022-10-23T02:02:53.734Z,101420.13
2022-10-23T02:05:28.054Z,101411.38
2022-10-23T02:07:58.153Z,101418.75
2022-10-23T02:10:42.647Z,101414.81
2022-10-23T02:13:17.548Z,101418.38
2022-10-23T02:15:50.031Z,101409.88
2022-10-23T02:18:32.763Z,101404.69
2022-10-23T02:21:10.348Z,101404.50
2022-10-23T02:23:42.342Z,101404.50
2022-10-23T02:26:16.811Z,101400.25
2022-10-23T02:28:53.992Z,101399.56
2022-10-23T02:31:25.176Z,101395.28
2022-10-23T02:33:54.916Z,101399.75
2022-10-23T02:36:24.356Z,101393.06
2022-10-23T02:38:52.539Z,101392.19
2022-10-23T02:41:31.119Z,101388.91
2022-10-23T02:44:08.706Z,101387.03
2022-10-23T02:46:48.349Z,101383.25
2022-10-23T02:49:24.436Z,101380.00
2022-10-23T02:52:02.052Z,101380.88
2022-10-23T02:54:45.084Z,101371.13
2022-10-23T02:57:22.912Z,101375.97
2022-10-23T03:00:01.397Z,101369.25
2022-10-23T03:02:36.807Z,101370.97
2022-10-23T03:05:07.404Z,101363.97
2022-10-23T03:07:36.102Z,101362.13
2022-10-23T03:10:08.588Z,101361.09
2022-10-23T03:12:37.516Z,101357.81
2022-10-23T03:15:08.353Z,101352.31
2022-10-23T03:17:37.655Z,101346.16
2022-10-23T03:20:06.076Z,101353.53
2022-10-23T03:22:33.967Z,101347.41
2022-10-23T03:25:02.200Z,101353.91
2022-10-23T03:27:32.462Z,101349.44
2022-10-23T03:30:05.712Z,101345.31
2022-10-23T03:32:35.161Z,101354.91
2022-10-23T03:35:04.679Z,101356.66
2022-10-23T03:37:33.532Z,101340.41
2022-10-23T03:40:02.658Z,101346.75
2022-10-23T03:42:33.880Z,101341.78
2022-10-23T03:45:01.820Z,101339.69
2022-10-23T03:47:30.699Z,101340.56
2022-10-23T03:49:59.377Z,101331.97
2022-10-23T03:52:28.789Z,101331.97
2022-10-23T03:54:56.835Z,101329.03
2022-10-23T03:57:25.357Z,101326.28
2022-10-23T03:59:53.831Z,101338.47
2022-10-23T04:02:21.919Z,101331.63
2022-10-23T04:04:49.841Z,101337.44
2022-10-23T04:07:17.771Z,101328.72
2022-10-23T04:09:48.545Z,101323.91
2022-10-23T04:12:18.279Z,101322.59
2022-10-23T04:14:46.644Z,101317.59
2022-10-23T04:17:14.704Z,101318.63
2022-10-23T04:19:43.841Z,101311.25
2022-10-23T04:22:11.910Z,101301.50
2022-10-23T04:24:45.280Z,101298.59
2022-10-23T04:27:18.913Z,101304.44
2022-10-23T04:29:46.846Z,101308.38
2022-10-23T04:32:14.849Z,101302.91
2022-10-23T04:34:45.170Z,101299.09
2022-10-23T04:37:13.852Z,101295.72
2022-10-23T04:39:41.804Z,101294.69
2022-10-23T04:42:14.190Z,101296.38
2022-10-23T04:44:43.454Z,101293.63
2022-10-23T04:47:12.822Z,101290.72
2022-10-23T04:49:53.050Z,101301.19
2022-10-23T04:52:23.764Z,101302.38
2022-10-23T04:55:27.436Z,101313.50
2022-10-23T04:58:18.508Z,101306.38
2022-10-23T05:00:48.544Z,101295.94
2022-10-23T05:03:23.830Z,101290.94
2022-10-23T05:05:54.099Z,101290.94
2022-10-23T05:08:31.571Z,101285.09
2022-10-23T05:11:18.154Z,101287.19
2022-10-23T05:13:49.073Z,101290.09
2022-10-23T05:16:31.527Z,101286.16
2022-10-23T05:19:00.952Z,101293.69
2022-10-23T05:21:33.345Z,101291.31
2022-10-23T05:24:02.148Z,101288.56
2022-10-23T05:26:32.112Z,101282.22
2022-10-23T05:29:05.550Z,101271.28
2022-10-23T05:31:36.656Z,101271.47
2022-10-23T05:34:13.456Z,101257.56
2022-10-23T05:36:44.706Z,101253.91
2022-10-23T05:39:13.220Z,101247.31
2022-10-23T05:41:41.354Z,101251.78
2022-10-23T05:44:09.385Z,101252.81
2022-10-23T05:46:57.601Z,101249.41
2022-10-23T05:49:45.814Z,101248.34
2022-10-23T05:52:22.437Z,101238.81
2022-10-23T05:55:09.832Z,101235.38
2022-10-23T05:57:56.499Z,101228.69
2022-10-23T06:00:44.399Z,101239.28
2022-10-23T06:03:34.085Z,101238.47
2022-10-23T06:06:02.726Z,101234.66
2022-10-23T06:08:41.628Z,101234.28
2022-10-23T06:11:11.762Z,101229.38
2022-10-23T06:13:40.352Z,101233.63
2022-10-23T06:16:11.943Z,101229.19
2022-10-23T06:18:42.086Z,101227.84
2022-10-23T06:21:15.772Z,101227.00
2022-10-23T06:23:47.874Z,101238.31
2022-10-23T06:26:28.717Z,101221.88
2022-10-23T06:29:01.532Z,101223.94
2022-10-23T06:31:29.909Z,101228.06
2022-10-23T06:34:01.153Z,101225.19
2022-10-23T06:36:30.917Z,101227.41
2022-10-23T06:39:10.288Z,101227.13
2022-10-23T06:42:05.046Z,101229.00
2022-10-23T06:45:11.700Z,101224.25
2022-10-23T06:48:11.517Z,101232.31
2022-10-23T06:51:00.657Z,101238.13
2022-10-23T06:53:37.714Z,101224.44
2022-10-23T06:56:13.606Z,101225.97
2022-10-23T06:58:41.958Z,101236.25
2022-10-23T07:01:16.938Z,101236.94
2022-10-23T07:03:46.388Z,101233.84
2022-10-23T07:06:16.517Z,101228.72
2022-10-23T07:08:44.851Z,101233.47
2022-10-23T07:11:36.009Z,101229.50
2022-10-23T07:14:04.174Z,101231.94
2022-10-23T07:16:32.677Z,101238.44
2022-10-23T07:19:01.902Z,101229.72
2022-10-23T07:21:32.850Z,101226.09
2022-10-23T07:24:22.054Z,101234.13
2022-10-23T07:26:52.437Z,101233.44
2022-10-23T07:29:20.927Z,101231.00
2022-10-23T07:31:49.769Z,101227.75
2022-10-23T07:34:37.828Z,101223.28
2022-10-23T07:37:20.517Z,101224.63
2022-10-23T07:39:48.496Z,101214.81
2022-10-23T07:42:16.492Z,101215.47
2022-10-23T07:44:44.799Z,101214.59
2022-10-23T07:47:13.326Z,101208.25
2022-10-23T07:49:45.088Z,101199.38
2022-10-23T07:52:13.482Z,101198.53
2022-10-23T07:55:02.994Z,101192.88
2022-10-23T07:57:33.475Z,101194.63
2022-10-23T08:00:13.515Z,101186.56
2022-10-23T08:02:53.374Z,101191.69
2022-10-23T08:05:21.669Z,101184.50
2022-10-23T08:07:56.013Z,101183.31
2022-10-23T08:10:25.422Z,101188.41
2022-10-23T08:12:53.650Z,101182.22
2022-10-23T08:15:29.915Z,101179.09
2022-10-23T08:18:04.479Z,101170.34
2022-10-23T08:20:47.250Z,101170.50
2022-10-23T08:23:18.391Z,101166.09
2022-10-23T08:25:48.242Z,101159.75
2022-10-23T08:28:18.299Z,101162.13
2022-10-23T08:30:55.229Z,101162.78
2022-10-23T08:33:23.397Z,101157.44
2022-10-23T08:35:51.894Z,101156.59
2022-10-23T08:38:29.315Z,101162.41
2022-10-23T08:41:01.506Z,101162.19
2022-10-23T08:43:57.745Z,101162.50
2022-10-23T08:46:38.975Z,101150.31
2022-10-23T08:49:29.505Z,101159.88
2022-10-23T08:52:10.459Z,101153.84
2022-10-23T08:54:50.771Z,101149.03
2022-10-23T08:57:23.296Z,101148.28
2022-10-23T09:00:01.163Z,101146.72
2022-10-23T09:02:34.810Z,101145.47
2022-10-23T09:05:02.821Z,101137.94
2022-10-23T09:07:41.554Z,101144.56
2022-10-23T09:10:32.347Z,101141.22
2022-10-23T09:13:12.269Z,101144.66
2022-10-23T09:15:43.591Z,101143.41
2022-10-23T09:18:15.282Z,101141.34
2022-10-23T09:20:46.153Z,101145.41
2022-10-23T09:23:17.904Z,101133.69
2022-10-23T09:25:47.768Z,101136.25
2022-10-23T09:28:22.621Z,101132.91
2022-10-23T09:30:52.026Z,101127.06
2022-10-23T09:33:22.305Z,101123.75
2022-10-23T09:35:56.387Z,101120.34
2022-10-23T09:38:29.641Z,101119.28
2022-10-23T09:41:00.017Z,101124.44
2022-10-23T09:43:29.622Z,101113.06
2022-10-23T09:46:05.094Z,101106.53
2022-10-23T09:48:35.362Z,101102.34
2022-10-23T09:51:04.803Z,101095.66
2022-10-23T09:53:36.707Z,101088.84
2022-10-23T09:56:11.837Z,101083.81
2022-10-23T09:58:53.944Z,101072.63
2022-10-23T10:01:26.091Z,101060.06
2022-10-23T10:03:57.918Z,101060.25
2022-10-23T10:06:30.941Z,101062.03
2022-10-23T10:09:01.964Z,101063.84
2022-10-23T10:11:38.412Z,101056.06
2022-10-23T10:14:44.815Z,101059.31
2022-10-23T10:17:21.533Z,101054.28
2022-10-23T10:20:06.958Z,101052.19
2022-10-23T10:22:41.693Z,101043.31
2022-10-23T10:25:14.701Z,101050.78
2022-10-23T10:27:52.826Z,101044.69
2022-10-23T10:30:24.323Z,101045.53
2022-10-23T10:32:59.985Z,101041.81
2022-10-23T10:35:38.418Z,101034.06
2022-10-23T10:38:38.195Z,101037.97
2022-10-23T10:41:28.344Z,101046.22
2022-10-23T10:44:11.755Z,101032.94
2022-10-23T10:46:47.870Z,101026.59
2022-10-23T10:49:21.498Z,101022.22
2022-10-23T10:52:21.774Z,101023.09
2022-10-23T10:54:59.909Z,101014.44
2022-10-23T10:57:34.883Z,101012.78
2022-10-23T11:00:06.493Z,101022.28
2022-10-23T11:02:42.425Z,101021.03
2022-10-23T11:05:30.901Z,101018.41
2022-10-23T11:08:05.059Z,101015.59
2022-10-23T11:10:34.580Z,101009.91
2022-10-23T11:13:03.576Z,101005.28
2022-10-23T11:15:43.988Z,100999.56
2022-10-23T11:18:19.913Z,100985.63
2022-10-23T11:21:00.586Z,100965.59
2022-10-23T11:24:01.070Z,100964.75
2022-10-23T11:26:41.260Z,100963.72
2022-10-23T11:29:43.853Z,100960.78
2022-10-23T11:32:31.553Z,100946.38
2022-10-23T11:35:20.993Z,100936.28
2022-10-23T11:38:00.109Z,100939.66
2022-10-23T11:40:28.902Z,100943.00
2022-10-23T11:42:57.070Z,100946.00
2022-10-23T11:45:33.978Z,100929.69
2022-10-23T11:48:04.470Z,100927.75
2022-10-23T11:50:50.671Z,100913.22
2022-10-23T11:53:27.574Z,100904.59
2022-10-23T11:56:01.703Z,100900.75
2022-10-23T11:58:41.961Z,100884.94
2022-10-23T12:01:25.540Z,100869.06
2022-10-23T12:03:57.946Z,100860.59
2022-10-23T12:06:33.023Z,100853.63
2022-10-23T12:09:05.714Z,100839.69
2022-10-23T12:11:45.810Z,100833.38
2022-10-23T12:14:31.943Z,100832.31
2022-10-23T12:17:01.037Z,100831.88
2022-10-23T12:19:31.233Z,100834.63
2022-10-23T12:22:02.949Z,100823.38
2022-10-23T12:24:49.157Z,100835.47
2022-10-23T12:27:31.214Z,100828.88
2022-10-23T12:30:23.560Z,100819.81
2022-10-23T12:33:13.780Z,100806.06
2022-10-23T12:36:03.989Z,100800.00
2022-10-23T12:38:35.698Z,100803.28
2022-10-23T12:41:13.856Z,100786.63
2022-10-23T12:43:45.396Z,100785.22
2022-10-23T12:46:37.948Z,100779.72
2022-10-23T12:49:15.899Z,100772.31
2022-10-23T12:51:44.170Z,100772.03
2022-10-23T12:54:19.174Z,100776.69
2022-10-23T12:56:48.494Z,100758.50
2022-10-23T12:59:19.577Z,100752.56
2022-10-23T13:01:52.389Z,100754.50
2022-10-23T13:04:28.295Z,100743.31
2022-10-23T13:06:57.686Z,100735.72
2022-10-23T13:09:32.200Z,100735.06
2022-10-23T13:12:22.350Z,100733.81
2022-10-23T13:15:00.182Z,100727.06
2022-10-23T13:17:40.246Z,100716.69
2022-10-23T13:20:22.935Z,100709.28
2022-10-23T13:22:59.268Z,100697.00
2022-10-23T13:25:32.878Z,100695.13
2022-10-23T13:28:16.007Z,100698.72
2022-10-23T13:30:46.364Z,100693.84
2022-10-23T13:33:24.046Z,100678.00
2022-10-23T13:35:59.320Z,100676.09
2022-10-23T13:38:32.799Z,100676.72
2022-10-23T13:41:03.057Z,100667.25
2022-10-23T13:43:32.702Z,100664.25
2022-10-23T13:46:01.619Z,100653.88
2022-10-23T13:48:30.117Z,100660.88
2022-10-23T13:51:07.976Z,100651.56
2022-10-23T13:53:35.900Z,100642.88
2022-10-23T13:56:05.399Z,100644.16
2022-10-23T13:58:33.366Z,100639.94
2022-10-23T14:01:01.914Z,100626.19
2022-10-23T14:03:29.937Z,100625.75
2022-10-23T14:05:58.018Z,100634.00
2022-10-23T14:08:25.900Z,100638.66
2022-10-23T14:10:54.295Z,100625.75
2022-10-23T14:13:23.842Z,100623.84
2022-10-23T14:15:54.600Z,100626.81
2022-10-23T14:18:23.073Z,100625.94
2022-10-23T14:20:51.430Z,100622.16
2022-10-23T14:23:19.954Z,100613.06
2022-10-23T14:25:47.972Z,100611.16
2022-10-23T14:28:16.132Z,100623.00
2022-10-23T14:30:45.801Z,100614.94
2022-10-23T14:33:15.197Z,100610.72
2022-10-23T14:35:43.535Z,100600.72
2022-10-23T14:38:11.698Z,100602.69
2022-10-23T14:40:40.463Z,100590.00
2022-10-23T14:43:08.342Z,100588.94
2022-10-23T14:45:36.452Z,100592.31
2022-10-23T14:48:06.499Z,100593.38
2022-10-23T14:50:43.182Z,100585.78
2022-10-23T14:53:11.172Z,100580.91
2022-10-23T14:55:39.353Z,100572.03
2022-10-23T14:58:07.708Z,100566.97
2022-10-23T15:00:35.658Z,100559.94
2022-10-23T15:03:06.898Z,100561.22
2022-10-23T15:05:35.721Z,100553.84
2022-10-23T15:08:03.856Z,100551.50
2022-10-23T15:10:32.242Z,100547.28
2022-10-23T15:13:00.240Z,100536.72
2022-10-23T15:15:28.417Z,100536.28
2022-10-23T15:17:56.506Z,100532.25
2022-10-23T15:20:25.870Z,100516.38
2022-10-23T15:22:53.966Z,100524.00
2022-10-23T15:25:21.889Z,100522.09
2022-10-23T15:27:50.014Z,100523.16
2022-10-23T15:30:18.867Z,100522.28
2022-10-23T15:32:46.734Z,100522.53
2022-10-23T15:35:14.704Z,100523.13
2022-10-23T15:37:44.908Z,100515.13
2022-10-23T15:40:13.879Z,100508.78
2022-10-23T15:42:42.292Z,100507.06
2022-10-23T15:45:14.031Z,100504.31
2022-10-23T15:47:42.289Z,100493.13
2022-10-23T15:50:10.868Z,100496.28
2022-10-23T15:52:38.918Z,100489.28
2022-10-23T15:55:11.614Z,100476.22
2022-10-23T15:57:39.713Z,100486.34
2022-10-23T16:00:10.526Z,100477.47
2022-10-23T16:02:38.554Z,100466.47
2022-10-23T16:05:07.420Z,100461.63
2022-10-23T16:07:35.606Z,100463.31
2022-10-23T16:10:04.927Z,100457.78
2022-10-23T16:12:34.422Z,100459.47
2022-10-23T16:15:02.458Z,100450.41
2022-10-23T16:17:30.809Z,100448.69
2022-10-23T16:19:58.703Z,100447.88
2022-10-23T16:22:27.113Z,100441.97
2022-10-23T16:24:55.420Z,100448.28
2022-10-23T16:27:23.399Z,100439.00
2022-10-23T16:29:55.104Z,100438.56
2022-10-23T16:32:23.034Z,100436.66
2022-10-23T16:34:51.189Z,100434.34
2022-10-23T16:37:21.398Z,100439.41
2022-10-23T16:39:55.572Z,100443.44
2022-10-23T16:43:01.902Z,100444.06
2022-10-23T16:45:42.069Z,100435.41
2022-10-23T16:48:10.052Z,100445.75
2022-10-23T16:53:07.578Z,100425.06
2022-10-23T16:55:35.741Z,100411.09
2022-10-23T16:58:04.261Z,100406.88
2022-10-23T17:00:35.239Z,100412.16
2022-10-23T17:03:06.116Z,100408.34
2022-10-23T17:05:35.417Z,100411.94
2022-10-23T17:08:04.212Z,100410.66
2022-10-23T17:10:32.653Z,100415.13
2022-10-23T17:13:00.637Z,100403.28
2022-10-23T17:15:28.810Z,100399.25
2022-10-23T17:17:58.174Z,100385.75
2022-10-23T17:20:27.472Z,100388.69
2022-10-23T17:22:55.486Z,100395.03
2022-10-23T17:25:23.509Z,100391.69
2022-10-23T17:27:51.590Z,100392.91
2022-10-23T17:30:19.504Z,100387.44
2022-10-23T17:32:47.855Z,100385.94
2022-10-23T17:35:16.216Z,100390.59
2022-10-23T17:37:45.678Z,100390.19
2022-10-23T17:40:14.122Z,100380.88
2022-10-23T17:42:42.446Z,100368.84
2022-10-23T17:45:11.481Z,100372.19
2022-10-23T17:47:41.188Z,100374.53
2022-10-23T17:50:12.244Z,100387.81
2022-10-23T17:52:40.349Z,100387.00
2022-10-23T17:55:10.644Z,100385.75
2022-10-23T17:57:39.079Z,100400.53
2022-10-23T18:00:07.869Z,100389.97
2022-10-23T18:02:40.951Z,100387.03
2022-10-23T18:05:09.457Z,100381.91
2022-10-23T18:07:37.524Z,100379.41
2022-10-23T18:10:06.606Z,100381.13
2022-10-23T18:12:37.306Z,100378.13
2022-10-23T18:15:06.980Z,100379.41
2022-10-23T18:17:35.778Z,100381.13
2022-10-23T18:20:04.626Z,100384.50
2022-10-23T18:22:33.493Z,100381.75
2022-10-23T18:25:01.990Z,100366.31
2022-10-23T18:27:29.932Z,100357.00
2022-10-23T18:29:59.894Z,100361.03
2022-10-23T18:32:29.792Z,100353.41
2022-10-23T18:34:57.863Z,100362.28
2022-10-23T18:37:28.873Z,100346.22
2022-10-23T18:39:59.876Z,100356.59
2022-10-23T18:42:27.854Z,100353.00
2022-10-23T18:44:55.833Z,100355.72
2022-10-23T18:47:25.236Z,100347.50
2022-10-23T18:49:53.199Z,100361.03
2022-10-23T18:52:21.232Z,100354.47
2022-10-23T18:54:49.525Z,100343.69
2022-10-23T18:57:17.477Z,100346.88
2022-10-23T18:59:45.422Z,100335.44
2022-10-23T19:02:13.525Z,100333.31
2022-10-23T19:04:43.126Z,100335.66
2022-10-23T19:07:11.028Z,100331.88
2022-10-23T19:09:40.213Z,100342.00
2022-10-23T19:12:08.431Z,100336.06
2022-10-23T19:14:36.573Z,100329.72
2022-10-23T19:17:09.217Z,100331.25
2022-10-23T19:19:42.472Z,100320.44
2022-10-23T19:22:13.304Z,100325.09
2022-10-23T19:24:45.345Z,100322.78
2022-10-23T19:27:13.692Z,100324.06
2022-10-23T19:29:46.125Z,100314.75
2022-10-23T19:32:14.757Z,100323.00
2022-10-23T19:34:42.829Z,100317.94
2022-10-23T19:39:40.592Z,100308.84
2022-10-23T19:42:09.006Z,100305.88
2022-10-23T19:44:36.961Z,100308.00
2022-10-23T19:47:05.451Z,100298.69
2022-10-23T19:49:33.374Z,100287.47
2022-10-23T19:52:01.407Z,100285.34
2022-10-23T19:54:30.709Z,100277.72
2022-10-23T19:56:58.706Z,100279.88
2022-10-23T19:59:26.618Z,100278.34
2022-10-23T20:01:54.653Z,100280.25
2022-10-23T20:04:22.846Z,100276.03
2022-10-23T20:06:50.784Z,100278.31
2022-10-23T20:09:18.700Z,100281.75
2022-10-23T20:11:49.268Z,100279.00
2022-10-23T20:14:18.672Z,100276.69
2022-10-23T20:16:51.131Z,100280.50
2022-10-23T20:19:23.334Z,100287.25
2022-10-23T20:21:51.469Z,100276.63
2022-10-23T20:24:21.408Z,100271.56
2022-10-23T20:26:52.523Z,100259.69
2022-10-23T20:29:21.239Z,100251.84
2022-10-23T20:31:49.692Z,100257.53
2022-10-23T20:34:18.994Z,100261.38
2022-10-23T20:36:49.272Z,100246.59
2022-10-23T20:39:19.669Z,100262.66
2022-10-23T20:41:48.583Z,100254.38
2022-10-23T20:44:19.883Z,100271.25
2022-10-23T20:46:48.711Z,100287.78
2022-10-23T20:49:17.794Z,100300.47
2022-10-23T20:51:46.414Z,100295.59
2022-10-23T20:54:14.308Z,100314.19
2022-10-23T20:56:42.441Z,100325.41
2022-10-23T20:59:13.251Z,100332.38
2022-10-23T21:01:44.745Z,100327.69
2022-10-23T21:04:14.490Z,100344.38
2022-10-23T21:06:57.719Z,100335.13
2022-10-23T21:09:31.720Z,100326.06
2022-10-23T21:11:59.809Z,100334.09
2022-10-23T21:14:28.671Z,100330.28
2022-10-23T21:16:58.664Z,100335.59
2022-10-23T21:19:26.657Z,100322.88
2022-10-23T21:21:55.134Z,100313.59
2022-10-23T21:24:24.020Z,100328.19
2022-10-23T21:26:51.973Z,100322.88
2022-10-23T21:29:20.580Z,100322.47
2022-10-23T21:31:53.622Z,100319.50
2022-10-23T21:34:23.256Z,100320.34
2022-10-23T21:37:11.826Z,100319.91
2022-10-23T21:39:39.226Z,100313.16
2022-10-23T21:42:07.856Z,100305.06
2022-10-23T21:44:36.382Z,100307.25
2022-10-23T21:47:05.843Z,100310.19
2022-10-23T21:49:35.298Z,100322.28
2022-10-23T21:52:03.314Z,100327.53
2022-10-23T21:54:31.697Z,100323.91
2022-10-23T21:56:59.852Z,100326.66
2022-10-23T21:59:31.507Z,100325.16
2022-10-23T22:02:01.326Z,100321.38
2022-10-23T22:04:30.168Z,100314.19
2022-10-23T22:06:59.637Z,100324.75
2022-10-23T22:09:30.806Z,100328.81
2022-10-23T22:12:00.787Z,100329.22
2022-10-23T22:14:29.221Z,100319.66
2022-10-23T22:16:57.481Z,100323.28
2022-10-23T22:19:25.614Z,100323.88
2022-10-23T22:21:53.500Z,100318.47
2022-10-23T22:24:25.716Z,100316.72
2022-10-23T22:26:56.545Z,100316.13
2022-10-23T22:29:27.726Z,100312.97
2022-10-23T22:31:56.401Z,100310.41
2022-10-23T22:34:48.410Z,100306.88
2022-10-23T22:37:14.364Z,100315.94
2022-10-23T22:39:43.846Z,100315.13
2022-10-23T22:42:11.875Z,100312.13
2022-10-23T22:44:40.002Z,100311.94
2022-10-23T22:47:08.265Z,100315.56
2022-10-23T22:49:36.733Z,100323.81
2022-10-23T22:52:04.855Z,100313.06
2022-10-23T22:54:33.270Z,100314.72
2022-10-23T22:57:02.817Z,100322.72
2022-10-23T22:59:31.252Z,100321.91
2022-10-23T23:01:59.468Z,100319.41
2022-10-23T23:04:43.326Z,100314.34
2022-10-23T23:07:12.863Z,100307.78
2022-10-23T23:09:42.716Z,100307.75
2022-10-23T23:12:14.304Z,100304.19
2022-10-23T23:14:42.477Z,100310.06
2022-10-23T23:17:11.186Z,100312.00
2022-10-23T23:19:40.014Z,100306.72
2022-10-23T23:22:08.477Z,100300.19
2022-10-23T23:24:36.684Z,100314.53
2022-10-23T23:27:05.010Z,100320.44
2022-10-23T23:29:34.359Z,100319.84
2022-10-23T23:32:02.342Z,100324.69
2022-10-23T23:34:30.426Z,100324.03
2022-10-23T23:36:58.679Z,100328.66
2022-10-23T23:39:28.638Z,100331.66
2022-10-23T23:41:56.774Z,100330.81
2022-10-23T23:44:25.058Z,100326.16
2022-10-23T23:46:54.385Z,100330.41
2022-10-23T23:49:22.492Z,100326.38
2022-10-23T23:51:50.524Z,100316.44
2022-10-23T23:54:18.895Z,100312.44
2022-10-23T23:56:46.753Z,100319.44
2022-10-23T23:59:14.675Z,100313.06
